sensor_id;sensor_type;location;lat;lon;timestamp;P1;durP1;ratioP1;P2;durP2;ratioP2
30301;SDS011;17111;52.130;5.028;2023-02-15T00:01:50;47.92;;;27.88;;
30301;SDS011;17111;52.130;5.028;2023-02-15T00:04:17;47.95;;;28.25;;
30301;SDS011;17111;52.130;5.028;2023-02-15T00:06:46;46.70;;;27.90;;
30301;SDS011;17111;52.130;5.028;2023-02-15T00:09:13;46.88;;;27.08;;
30301;SDS011;17111;52.130;5.028;2023-02-15T00:11:39;44.75;;;26.08;;
30301;SDS011;17111;52.130;5.028;2023-02-15T00:14:07;46.55;;;27.58;;
30301;SDS011;17111;52.130;5.028;2023-02-15T00:16:38;45.47;;;27.55;;
30301;SDS011;17111;52.130;5.028;2023-02-15T00:19:06;51.03;;;26.80;;
30301;SDS011;17111;52.130;5.028;2023-02-15T00:21:33;43.22;;;25.83;;
30301;SDS011;17111;52.130;5.028;2023-02-15T00:24:01;41.90;;;25.35;;
30301;SDS011;17111;52.130;5.028;2023-02-15T00:26:29;43.40;;;25.75;;
30301;SDS011;17111;52.130;5.028;2023-02-15T00:28:56;45.42;;;26.38;;
30301;SDS011;17111;52.130;5.028;2023-02-15T00:31:27;42.90;;;25.83;;
30301;SDS011;17111;52.130;5.028;2023-02-15T00:36:49;39.50;;;23.48;;
30301;SDS011;17111;52.130;5.028;2023-02-15T00:39:16;40.55;;;24.15;;
30301;SDS011;17111;52.130;5.028;2023-02-15T00:41:43;35.67;;;22.05;;
30301;SDS011;17111;52.130;5.028;2023-02-15T00:44:11;41.85;;;23.67;;
30301;SDS011;17111;52.130;5.028;2023-02-15T00:46:37;41.60;;;24.70;;
30301;SDS011;17111;52.130;5.028;2023-02-15T00:49:04;36.75;;;22.77;;
30301;SDS011;17111;52.130;5.028;2023-02-15T00:51:31;40.08;;;23.80;;
30301;SDS011;17111;52.130;5.028;2023-02-15T00:53:58;38.05;;;23.23;;
30301;SDS011;17111;52.130;5.028;2023-02-15T00:56:25;34.97;;;21.92;;
30301;SDS011;17111;52.130;5.028;2023-02-15T00:58:54;35.92;;;22.08;;
30301;SDS011;17111;52.130;5.028;2023-02-15T01:01:21;36.78;;;22.60;;
30301;SDS011;17111;52.130;5.028;2023-02-15T01:03:47;34.85;;;21.60;;
30301;SDS011;17111;52.130;5.028;2023-02-15T01:06:14;37.35;;;22.83;;
30301;SDS011;17111;52.130;5.028;2023-02-15T01:08:42;34.08;;;20.58;;
30301;SDS011;17111;52.130;5.028;2023-02-15T01:11:11;35.53;;;21.35;;
30301;SDS011;17111;52.130;5.028;2023-02-15T01:13:38;34.58;;;20.73;;
30301;SDS011;17111;52.130;5.028;2023-02-15T01:16:06;34.95;;;20.55;;
30301;SDS011;17111;52.130;5.028;2023-02-15T01:18:33;32.88;;;18.83;;
30301;SDS011;17111;52.130;5.028;2023-02-15T01:21:08;33.58;;;19.60;;
30301;SDS011;17111;52.130;5.028;2023-02-15T01:23:40;33.25;;;20.42;;
30301;SDS011;17111;52.130;5.028;2023-02-15T01:26:08;36.15;;;20.67;;
30301;SDS011;17111;52.130;5.028;2023-02-15T01:28:37;33.72;;;19.98;;
30301;SDS011;17111;52.130;5.028;2023-02-15T01:31:05;32.65;;;20.35;;
30301;SDS011;17111;52.130;5.028;2023-02-15T01:33:33;32.70;;;19.58;;
30301;SDS011;17111;52.130;5.028;2023-02-15T01:35:59;31.00;;;18.92;;
30301;SDS011;17111;52.130;5.028;2023-02-15T01:38:26;31.05;;;18.85;;
30301;SDS011;17111;52.130;5.028;2023-02-15T01:40:53;30.35;;;18.58;;
30301;SDS011;17111;52.130;5.028;2023-02-15T01:43:41;31.60;;;18.30;;
30301;SDS011;17111;52.130;5.028;2023-02-15T01:46:09;28.98;;;18.65;;
30301;SDS011;17111;52.130;5.028;2023-02-15T01:48:39;28.90;;;17.83;;
30301;SDS011;17111;52.130;5.028;2023-02-15T01:51:13;29.27;;;18.20;;
30301;SDS011;17111;52.130;5.028;2023-02-15T01:53:53;28.35;;;16.83;;
30301;SDS011;17111;52.130;5.028;2023-02-15T01:56:29;27.27;;;16.63;;
30301;SDS011;17111;52.130;5.028;2023-02-15T01:59:00;29.98;;;18.10;;
30301;SDS011;17111;52.130;5.028;2023-02-15T02:01:32;30.33;;;17.73;;
30301;SDS011;17111;52.130;5.028;2023-02-15T02:04:01;29.75;;;18.08;;
30301;SDS011;17111;52.130;5.028;2023-02-15T02:06:35;28.25;;;17.02;;
30301;SDS011;17111;52.130;5.028;2023-02-15T02:09:04;26.45;;;15.77;;
30301;SDS011;17111;52.130;5.028;2023-02-15T02:11:30;23.63;;;14.77;;
30301;SDS011;17111;52.130;5.028;2023-02-15T02:13:58;26.25;;;17.30;;
30301;SDS011;17111;52.130;5.028;2023-02-15T02:16:26;26.10;;;15.82;;
30301;SDS011;17111;52.130;5.028;2023-02-15T02:27:37;27.02;;;15.52;;
30301;SDS011;17111;52.130;5.028;2023-02-15T02:35:36;24.15;;;14.93;;
30301;SDS011;17111;52.130;5.028;2023-02-15T02:38:20;21.55;;;14.30;;
30301;SDS011;17111;52.130;5.028;2023-02-15T02:46:28;24.23;;;15.13;;
30301;SDS011;17111;52.130;5.028;2023-02-15T02:49:00;21.40;;;13.02;;
30301;SDS011;17111;52.130;5.028;2023-02-15T02:51:27;24.10;;;14.27;;
30301;SDS011;17111;52.130;5.028;2023-02-15T02:53:55;23.55;;;13.93;;
30301;SDS011;17111;52.130;5.028;2023-02-15T02:56:27;20.75;;;13.57;;
30301;SDS011;17111;52.130;5.028;2023-02-15T02:59:04;21.70;;;13.02;;
30301;SDS011;17111;52.130;5.028;2023-02-15T03:01:41;20.25;;;13.23;;
30301;SDS011;17111;52.130;5.028;2023-02-15T03:04:15;22.25;;;13.57;;
30301;SDS011;17111;52.130;5.028;2023-02-15T03:06:51;21.52;;;13.57;;
30301;SDS011;17111;52.130;5.028;2023-02-15T03:09:25;20.27;;;12.63;;
30301;SDS011;17111;52.130;5.028;2023-02-15T03:12:12;20.05;;;12.18;;
30301;SDS011;17111;52.130;5.028;2023-02-15T03:14:41;20.30;;;12.25;;
30301;SDS011;17111;52.130;5.028;2023-02-15T03:17:11;21.05;;;12.52;;
30301;SDS011;17111;52.130;5.028;2023-02-15T03:19:40;19.38;;;12.32;;
30301;SDS011;17111;52.130;5.028;2023-02-15T03:22:12;19.67;;;12.63;;
30301;SDS011;17111;52.130;5.028;2023-02-15T03:24:54;20.10;;;12.10;;
30301;SDS011;17111;52.130;5.028;2023-02-15T03:27:25;18.63;;;11.85;;
30301;SDS011;17111;52.130;5.028;2023-02-15T03:29:58;17.15;;;11.60;;
30301;SDS011;17111;52.130;5.028;2023-02-15T03:32:26;18.98;;;11.27;;
30301;SDS011;17111;52.130;5.028;2023-02-15T03:34:55;17.02;;;11.70;;
30301;SDS011;17111;52.130;5.028;2023-02-15T03:39:52;17.02;;;11.18;;
30301;SDS011;17111;52.130;5.028;2023-02-15T03:42:45;17.00;;;10.52;;
30301;SDS011;17111;52.130;5.028;2023-02-15T03:45:22;15.73;;;10.40;;
30301;SDS011;17111;52.130;5.028;2023-02-15T03:50:24;16.70;;;10.48;;
30301;SDS011;17111;52.130;5.028;2023-02-15T03:53:13;17.95;;;11.68;;
30301;SDS011;17111;52.130;5.028;2023-02-15T03:55:45;17.05;;;10.95;;
30301;SDS011;17111;52.130;5.028;2023-02-15T03:58:13;19.63;;;11.35;;
30301;SDS011;17111;52.130;5.028;2023-02-15T04:00:59;15.95;;;10.52;;
30301;SDS011;17111;52.130;5.028;2023-02-15T04:04:09;15.77;;;10.00;;
30301;SDS011;17111;52.130;5.028;2023-02-15T04:06:44;15.73;;;9.88;;
30301;SDS011;17111;52.130;5.028;2023-02-15T04:09:11;14.57;;;9.98;;
30301;SDS011;17111;52.130;5.028;2023-02-15T04:11:56;16.25;;;10.60;;
30301;SDS011;17111;52.130;5.028;2023-02-15T04:14:23;14.43;;;9.23;;
30301;SDS011;17111;52.130;5.028;2023-02-15T04:17:08;15.45;;;10.50;;
30301;SDS011;17111;52.130;5.028;2023-02-15T04:19:35;18.30;;;10.77;;
30301;SDS011;17111;52.130;5.028;2023-02-15T04:22:20;15.40;;;9.63;;
30301;SDS011;17111;52.130;5.028;2023-02-15T04:25:06;15.10;;;9.57;;
30301;SDS011;17111;52.130;5.028;2023-02-15T04:27:48;14.50;;;9.68;;
30301;SDS011;17111;52.130;5.028;2023-02-15T04:30:16;14.57;;;9.32;;
30301;SDS011;17111;52.130;5.028;2023-02-15T04:32:45;15.57;;;9.77;;
30301;SDS011;17111;52.130;5.028;2023-02-15T04:35:12;16.23;;;9.55;;
30301;SDS011;17111;52.130;5.028;2023-02-15T04:37:39;13.60;;;8.98;;
30301;SDS011;17111;52.130;5.028;2023-02-15T04:40:08;15.75;;;9.85;;
30301;SDS011;17111;52.130;5.028;2023-02-15T04:42:37;13.38;;;8.98;;
30301;SDS011;17111;52.130;5.028;2023-02-15T04:45:04;14.93;;;9.68;;
30301;SDS011;17111;52.130;5.028;2023-02-15T04:47:31;16.42;;;10.27;;
30301;SDS011;17111;52.130;5.028;2023-02-15T04:49:58;13.68;;;9.15;;
30301;SDS011;17111;52.130;5.028;2023-02-15T04:52:24;15.15;;;9.25;;
30301;SDS011;17111;52.130;5.028;2023-02-15T04:54:51;13.13;;;9.07;;
30301;SDS011;17111;52.130;5.028;2023-02-15T04:57:17;13.80;;;8.85;;
30301;SDS011;17111;52.130;5.028;2023-02-15T04:59:44;15.50;;;9.15;;
30301;SDS011;17111;52.130;5.028;2023-02-15T05:02:10;13.30;;;8.65;;
30301;SDS011;17111;52.130;5.028;2023-02-15T05:04:37;13.95;;;8.43;;
30301;SDS011;17111;52.130;5.028;2023-02-15T05:07:04;14.55;;;7.80;;
30301;SDS011;17111;52.130;5.028;2023-02-15T05:09:30;12.98;;;8.63;;
30301;SDS011;17111;52.130;5.028;2023-02-15T05:11:57;13.25;;;8.35;;
30301;SDS011;17111;52.130;5.028;2023-02-15T05:14:23;13.05;;;8.60;;
30301;SDS011;17111;52.130;5.028;2023-02-15T05:16:50;12.13;;;8.55;;
30301;SDS011;17111;52.130;5.028;2023-02-15T05:19:16;13.32;;;8.77;;
30301;SDS011;17111;52.130;5.028;2023-02-15T05:21:43;13.43;;;8.82;;
30301;SDS011;17111;52.130;5.028;2023-02-15T05:24:09;12.45;;;8.68;;
30301;SDS011;17111;52.130;5.028;2023-02-15T05:27:02;12.18;;;8.15;;
30301;SDS011;17111;52.130;5.028;2023-02-15T05:29:47;13.75;;;8.85;;
30301;SDS011;17111;52.130;5.028;2023-02-15T05:32:14;12.82;;;7.78;;
30301;SDS011;17111;52.130;5.028;2023-02-15T05:34:41;12.35;;;8.20;;
30301;SDS011;17111;52.130;5.028;2023-02-15T05:37:08;12.43;;;7.72;;
30301;SDS011;17111;52.130;5.028;2023-02-15T05:39:34;11.40;;;7.88;;
30301;SDS011;17111;52.130;5.028;2023-02-15T05:42:01;12.93;;;8.43;;
30301;SDS011;17111;52.130;5.028;2023-02-15T05:44:28;12.77;;;8.10;;
30301;SDS011;17111;52.130;5.028;2023-02-15T05:46:54;11.80;;;7.97;;
30301;SDS011;17111;52.130;5.028;2023-02-15T05:49:21;11.70;;;7.65;;
30301;SDS011;17111;52.130;5.028;2023-02-15T05:51:48;11.30;;;7.40;;
30301;SDS011;17111;52.130;5.028;2023-02-15T05:54:14;14.07;;;7.47;;
30301;SDS011;17111;52.130;5.028;2023-02-15T05:56:41;11.35;;;7.43;;
30301;SDS011;17111;52.130;5.028;2023-02-15T05:59:08;11.35;;;7.50;;
30301;SDS011;17111;52.130;5.028;2023-02-15T06:01:34;10.23;;;7.20;;
30301;SDS011;17111;52.130;5.028;2023-02-15T06:04:01;12.68;;;7.70;;
30301;SDS011;17111;52.130;5.028;2023-02-15T06:06:28;12.27;;;7.60;;
30301;SDS011;17111;52.130;5.028;2023-02-15T06:08:54;12.55;;;7.82;;
30301;SDS011;17111;52.130;5.028;2023-02-15T06:11:21;10.32;;;6.82;;
30301;SDS011;17111;52.130;5.028;2023-02-15T06:13:47;12.48;;;7.43;;
30301;SDS011;17111;52.130;5.028;2023-02-15T06:16:14;12.50;;;7.60;;
30301;SDS011;17111;52.130;5.028;2023-02-15T06:18:42;10.57;;;7.13;;
30301;SDS011;17111;52.130;5.028;2023-02-15T06:21:09;11.00;;;7.20;;
30301;SDS011;17111;52.130;5.028;2023-02-15T06:23:35;10.93;;;6.85;;
30301;SDS011;17111;52.130;5.028;2023-02-15T06:26:02;10.38;;;6.82;;
30301;SDS011;17111;52.130;5.028;2023-02-15T06:28:29;12.13;;;6.68;;
30301;SDS011;17111;52.130;5.028;2023-02-15T06:30:55;10.52;;;6.88;;
30301;SDS011;17111;52.130;5.028;2023-02-15T06:33:22;11.48;;;7.15;;
30301;SDS011;17111;52.130;5.028;2023-02-15T06:35:49;9.25;;;6.60;;
30301;SDS011;17111;52.130;5.028;2023-02-15T06:38:16;9.65;;;6.45;;
30301;SDS011;17111;52.130;5.028;2023-02-15T06:40:43;11.10;;;6.95;;
30301;SDS011;17111;52.130;5.028;2023-02-15T06:43:10;10.27;;;6.70;;
30301;SDS011;17111;52.130;5.028;2023-02-15T06:45:36;10.95;;;6.78;;
30301;SDS011;17111;52.130;5.028;2023-02-15T06:48:03;9.65;;;6.20;;
30301;SDS011;17111;52.130;5.028;2023-02-15T06:50:32;9.52;;;6.22;;
30301;SDS011;17111;52.130;5.028;2023-02-15T06:52:59;10.60;;;6.95;;
30301;SDS011;17111;52.130;5.028;2023-02-15T06:55:26;10.77;;;7.03;;
30301;SDS011;17111;52.130;5.028;2023-02-15T06:57:52;9.27;;;6.32;;
30301;SDS011;17111;52.130;5.028;2023-02-15T07:00:19;8.95;;;6.35;;
30301;SDS011;17111;52.130;5.028;2023-02-15T07:02:54;9.07;;;6.18;;
30301;SDS011;17111;52.130;5.028;2023-02-15T07:05:22;9.52;;;6.25;;
30301;SDS011;17111;52.130;5.028;2023-02-15T07:07:48;12.13;;;6.45;;
30301;SDS011;17111;52.130;5.028;2023-02-15T07:10:15;10.23;;;7.05;;
30301;SDS011;17111;52.130;5.028;2023-02-15T07:12:42;10.32;;;6.88;;
30301;SDS011;17111;52.130;5.028;2023-02-15T07:15:09;8.95;;;6.28;;
30301;SDS011;17111;52.130;5.028;2023-02-15T07:17:43;10.82;;;6.75;;
30301;SDS011;17111;52.130;5.028;2023-02-15T07:20:11;11.45;;;6.18;;
30301;SDS011;17111;52.130;5.028;2023-02-15T07:22:42;9.93;;;6.38;;
30301;SDS011;17111;52.130;5.028;2023-02-15T07:25:09;8.25;;;6.13;;
30301;SDS011;17111;52.130;5.028;2023-02-15T07:27:37;10.35;;;6.53;;
30301;SDS011;17111;52.130;5.028;2023-02-15T07:30:04;9.63;;;6.10;;
30301;SDS011;17111;52.130;5.028;2023-02-15T07:32:33;10.10;;;6.93;;
30301;SDS011;17111;52.130;5.028;2023-02-15T07:34:59;8.38;;;5.97;;
30301;SDS011;17111;52.130;5.028;2023-02-15T07:37:26;8.93;;;5.68;;
30301;SDS011;17111;52.130;5.028;2023-02-15T07:39:53;9.73;;;5.85;;
30301;SDS011;17111;52.130;5.028;2023-02-15T07:42:20;10.00;;;6.57;;
30301;SDS011;17111;52.130;5.028;2023-02-15T07:44:48;10.20;;;6.43;;
30301;SDS011;17111;52.130;5.028;2023-02-15T07:47:14;10.52;;;6.53;;
30301;SDS011;17111;52.130;5.028;2023-02-15T07:49:41;9.30;;;6.05;;
30301;SDS011;17111;52.130;5.028;2023-02-15T07:52:08;10.07;;;6.68;;
30301;SDS011;17111;52.130;5.028;2023-02-15T07:54:34;7.93;;;5.72;;
30301;SDS011;17111;52.130;5.028;2023-02-15T07:57:01;8.70;;;5.85;;
30301;SDS011;17111;52.130;5.028;2023-02-15T07:59:28;10.20;;;6.75;;
30301;SDS011;17111;52.130;5.028;2023-02-15T08:01:54;12.80;;;6.55;;
30301;SDS011;17111;52.130;5.028;2023-02-15T08:04:22;7.70;;;5.35;;
30301;SDS011;17111;52.130;5.028;2023-02-15T08:06:51;11.85;;;6.40;;
30301;SDS011;17111;52.130;5.028;2023-02-15T08:09:19;8.60;;;6.00;;
30301;SDS011;17111;52.130;5.028;2023-02-15T08:11:46;8.68;;;5.93;;
30301;SDS011;17111;52.130;5.028;2023-02-15T08:14:14;9.15;;;5.72;;
30301;SDS011;17111;52.130;5.028;2023-02-15T08:21:48;10.00;;;5.93;;
30301;SDS011;17111;52.130;5.028;2023-02-15T08:24:20;9.60;;;6.53;;
30301;SDS011;17111;52.130;5.028;2023-02-15T08:26:48;10.15;;;6.63;;
30301;SDS011;17111;52.130;5.028;2023-02-15T08:29:17;10.10;;;6.60;;
30301;SDS011;17111;52.130;5.028;2023-02-15T08:31:45;12.05;;;7.82;;
30301;SDS011;17111;52.130;5.028;2023-02-15T08:34:16;12.50;;;7.47;;
30301;SDS011;17111;52.130;5.028;2023-02-15T08:36:44;9.77;;;7.00;;
30301;SDS011;17111;52.130;5.028;2023-02-15T08:39:11;12.20;;;8.07;;
30301;SDS011;17111;52.130;5.028;2023-02-15T08:41:41;12.18;;;8.10;;
30301;SDS011;17111;52.130;5.028;2023-02-15T08:44:08;13.38;;;7.63;;
30301;SDS011;17111;52.130;5.028;2023-02-15T08:46:38;12.13;;;7.78;;
30301;SDS011;17111;52.130;5.028;2023-02-15T08:49:05;13.68;;;7.93;;
30301;SDS011;17111;52.130;5.028;2023-02-15T08:51:33;11.30;;;7.50;;
30301;SDS011;17111;52.130;5.028;2023-02-15T08:54:02;12.85;;;8.60;;
30301;SDS011;17111;52.130;5.028;2023-02-15T08:56:32;14.20;;;7.57;;
30301;SDS011;17111;52.130;5.028;2023-02-15T08:59:02;12.15;;;7.60;;
30301;SDS011;17111;52.130;5.028;2023-02-15T09:01:30;16.63;;;8.38;;
30301;SDS011;17111;52.130;5.028;2023-02-15T09:03:58;12.13;;;7.40;;
30301;SDS011;17111;52.130;5.028;2023-02-15T09:06:28;12.90;;;8.00;;
30301;SDS011;17111;52.130;5.028;2023-02-15T09:08:55;11.35;;;8.27;;
30301;SDS011;17111;52.130;5.028;2023-02-15T09:11:26;13.05;;;8.10;;
30301;SDS011;17111;52.130;5.028;2023-02-15T09:13:55;12.73;;;7.97;;
30301;SDS011;17111;52.130;5.028;2023-02-15T09:16:27;13.63;;;8.95;;
30301;SDS011;17111;52.130;5.028;2023-02-15T09:18:56;16.40;;;8.73;;
30301;SDS011;17111;52.130;5.028;2023-02-15T09:21:28;14.10;;;8.90;;
30301;SDS011;17111;52.130;5.028;2023-02-15T09:23:56;14.32;;;8.90;;
30301;SDS011;17111;52.130;5.028;2023-02-15T09:26:26;15.57;;;8.85;;
30301;SDS011;17111;52.130;5.028;2023-02-15T09:28:55;14.60;;;8.63;;
30301;SDS011;17111;52.130;5.028;2023-02-15T09:31:24;12.45;;;7.90;;
30301;SDS011;17111;52.130;5.028;2023-02-15T09:33:53;11.27;;;7.43;;
30301;SDS011;17111;52.130;5.028;2023-02-15T09:38:58;12.75;;;7.57;;
30301;SDS011;17111;52.130;5.028;2023-02-15T10:04:22;10.68;;;7.22;;
30301;SDS011;17111;52.130;5.028;2023-02-15T10:15:03;10.55;;;7.10;;
30301;SDS011;17111;52.130;5.028;2023-02-15T10:18:26;11.15;;;6.72;;
30301;SDS011;17111;52.130;5.028;2023-02-15T10:20:51;11.10;;;7.05;;
30301;SDS011;17111;52.130;5.028;2023-02-15T10:23:39;10.55;;;6.75;;
30301;SDS011;17111;52.130;5.028;2023-02-15T10:26:31;10.50;;;6.90;;
30301;SDS011;17111;52.130;5.028;2023-02-15T10:29:12;10.50;;;7.10;;
30301;SDS011;17111;52.130;5.028;2023-02-15T10:31:50;12.37;;;7.60;;
30301;SDS011;17111;52.130;5.028;2023-02-15T10:34:43;13.48;;;8.13;;
30301;SDS011;17111;52.130;5.028;2023-02-15T10:43:06;9.93;;;6.97;;
30301;SDS011;17111;52.130;5.028;2023-02-15T10:45:56;10.88;;;7.13;;
30301;SDS011;17111;52.130;5.028;2023-02-15T10:54:14;17.25;;;8.27;;
30301;SDS011;17111;52.130;5.028;2023-02-15T11:01:58;15.23;;;8.93;;
30301;SDS011;17111;52.130;5.028;2023-02-15T11:04:57;13.75;;;8.32;;
30301;SDS011;17111;52.130;5.028;2023-02-15T11:07:38;16.67;;;9.88;;
30301;SDS011;17111;52.130;5.028;2023-02-15T11:10:15;19.90;;;10.23;;
30301;SDS011;17111;52.130;5.028;2023-02-15T11:12:46;25.58;;;13.02;;
30301;SDS011;17111;52.130;5.028;2023-02-15T11:15:34;20.77;;;11.18;;
30301;SDS011;17111;52.130;5.028;2023-02-15T11:18:11;24.30;;;12.38;;
30301;SDS011;17111;52.130;5.028;2023-02-15T11:21:17;17.30;;;10.35;;
30301;SDS011;17111;52.130;5.028;2023-02-15T11:23:50;16.70;;;10.80;;
30301;SDS011;17111;52.130;5.028;2023-02-15T11:28:57;18.75;;;10.13;;
30301;SDS011;17111;52.130;5.028;2023-02-15T11:31:47;17.35;;;9.50;;
30301;SDS011;17111;52.130;5.028;2023-02-15T11:34:27;14.80;;;9.23;;
30301;SDS011;17111;52.130;5.028;2023-02-15T11:37:01;19.90;;;9.23;;
30301;SDS011;17111;52.130;5.028;2023-02-15T11:39:34;21.50;;;14.23;;
30301;SDS011;17111;52.130;5.028;2023-02-15T11:42:04;21.63;;;12.55;;
30301;SDS011;17111;52.130;5.028;2023-02-15T11:44:39;16.90;;;11.05;;
30301;SDS011;17111;52.130;5.028;2023-02-15T11:47:12;23.27;;;12.27;;
30301;SDS011;17111;52.130;5.028;2023-02-15T11:49:39;17.80;;;9.70;;
30301;SDS011;17111;52.130;5.028;2023-02-15T11:52:08;18.88;;;9.88;;
30301;SDS011;17111;52.130;5.028;2023-02-15T11:54:56;18.33;;;10.55;;
30301;SDS011;17111;52.130;5.028;2023-02-15T11:57:25;19.50;;;10.82;;
30301;SDS011;17111;52.130;5.028;2023-02-15T12:00:00;18.00;;;10.82;;
30301;SDS011;17111;52.130;5.028;2023-02-15T12:02:49;27.08;;;14.93;;
30301;SDS011;17111;52.130;5.028;2023-02-15T12:05:20;19.85;;;12.00;;
30301;SDS011;17111;52.130;5.028;2023-02-15T12:07:54;22.10;;;12.32;;
30301;SDS011;17111;52.130;5.028;2023-02-15T12:10:32;21.20;;;12.85;;
30301;SDS011;17111;52.130;5.028;2023-02-15T12:15:38;22.23;;;14.55;;
30301;SDS011;17111;52.130;5.028;2023-02-15T12:20:59;21.25;;;12.35;;
30301;SDS011;17111;52.130;5.028;2023-02-15T12:23:47;22.58;;;14.07;;
30301;SDS011;17111;52.130;5.028;2023-02-15T12:26:30;23.23;;;13.48;;
30301;SDS011;17111;52.130;5.028;2023-02-15T12:28:59;20.73;;;11.65;;
30301;SDS011;17111;52.130;5.028;2023-02-15T12:31:37;16.13;;;10.73;;
30301;SDS011;17111;52.130;5.028;2023-02-15T12:34:11;15.65;;;10.05;;
30301;SDS011;17111;52.130;5.028;2023-02-15T12:36:49;16.35;;;10.15;;
30301;SDS011;17111;52.130;5.028;2023-02-15T12:39:25;19.38;;;10.70;;
30301;SDS011;17111;52.130;5.028;2023-02-15T12:46:57;20.23;;;11.73;;
30301;SDS011;17111;52.130;5.028;2023-02-15T12:49:28;22.55;;;11.95;;
30301;SDS011;17111;52.130;5.028;2023-02-15T12:52:00;17.77;;;11.30;;
30301;SDS011;17111;52.130;5.028;2023-02-15T12:56:55;18.30;;;9.75;;
30301;SDS011;17111;52.130;5.028;2023-02-15T12:59:23;19.77;;;10.95;;
30301;SDS011;17111;52.130;5.028;2023-02-15T13:01:53;21.65;;;11.55;;
30301;SDS011;17111;52.130;5.028;2023-02-15T13:04:26;16.98;;;10.05;;
30301;SDS011;17111;52.130;5.028;2023-02-15T13:06:57;21.85;;;12.45;;
30301;SDS011;17111;52.130;5.028;2023-02-15T13:09:34;20.70;;;12.90;;
30301;SDS011;17111;52.130;5.028;2023-02-15T13:12:20;21.40;;;11.93;;
30301;SDS011;17111;52.130;5.028;2023-02-15T13:14:50;20.38;;;12.25;;
30301;SDS011;17111;52.130;5.028;2023-02-15T13:17:28;24.50;;;14.23;;
30301;SDS011;17111;52.130;5.028;2023-02-15T13:19:59;25.63;;;15.45;;
30301;SDS011;17111;52.130;5.028;2023-02-15T13:22:39;21.33;;;13.77;;
30301;SDS011;17111;52.130;5.028;2023-02-15T13:25:19;21.48;;;13.20;;
30301;SDS011;17111;52.130;5.028;2023-02-15T13:27:50;24.83;;;15.40;;
30301;SDS011;17111;52.130;5.028;2023-02-15T13:30:22;27.27;;;15.68;;
30301;SDS011;17111;52.130;5.028;2023-02-15T13:32:51;31.92;;;16.90;;
30301;SDS011;17111;52.130;5.028;2023-02-15T13:35:22;23.50;;;15.00;;
30301;SDS011;17111;52.130;5.028;2023-02-15T13:40:37;26.98;;;16.20;;
30301;SDS011;17111;52.130;5.028;2023-02-15T13:43:30;20.83;;;13.63;;
30301;SDS011;17111;52.130;5.028;2023-02-15T13:46:23;24.73;;;16.45;;
30301;SDS011;17111;52.130;5.028;2023-02-15T13:54:28;25.50;;;16.02;;
30301;SDS011;17111;52.130;5.028;2023-02-15T13:57:21;25.85;;;16.08;;
30301;SDS011;17111;52.130;5.028;2023-02-15T14:00:00;29.23;;;14.90;;
30301;SDS011;17111;52.130;5.028;2023-02-15T14:02:52;23.13;;;15.38;;
30301;SDS011;17111;52.130;5.028;2023-02-15T14:06:01;24.63;;;15.45;;
30301;SDS011;17111;52.130;5.028;2023-02-15T14:11:24;26.50;;;15.85;;
30301;SDS011;17111;52.130;5.028;2023-02-15T14:14:02;23.08;;;14.52;;
30301;SDS011;17111;52.130;5.028;2023-02-15T14:19:47;22.50;;;14.38;;
30301;SDS011;17111;52.130;5.028;2023-02-15T14:28:02;23.48;;;15.43;;
30301;SDS011;17111;52.130;5.028;2023-02-15T14:30:36;23.88;;;14.18;;
30301;SDS011;17111;52.130;5.028;2023-02-15T14:35:40;29.77;;;17.05;;
30301;SDS011;17111;52.130;5.028;2023-02-15T14:43:56;25.45;;;15.13;;
30301;SDS011;17111;52.130;5.028;2023-02-15T14:49:29;21.63;;;13.48;;
30301;SDS011;17111;52.130;5.028;2023-02-15T14:51:59;22.83;;;13.70;;
30301;SDS011;17111;52.130;5.028;2023-02-15T15:04:43;22.73;;;13.18;;
30301;SDS011;17111;52.130;5.028;2023-02-15T15:07:24;27.00;;;14.00;;
30301;SDS011;17111;52.130;5.028;2023-02-15T15:12:56;23.58;;;13.93;;
30301;SDS011;17111;52.130;5.028;2023-02-15T15:23:32;19.60;;;12.45;;
30301;SDS011;17111;52.130;5.028;2023-02-15T15:25:51;24.95;;;13.73;;
30301;SDS011;17111;52.130;5.028;2023-02-15T15:39:43;20.50;;;11.57;;
30301;SDS011;17111;52.130;5.028;2023-02-15T15:42:30;19.10;;;11.45;;
30301;SDS011;17111;52.130;5.028;2023-02-15T15:51:03;19.10;;;11.85;;
30301;SDS011;17111;52.130;5.028;2023-02-15T15:56:10;19.08;;;12.15;;
30301;SDS011;17111;52.130;5.028;2023-02-15T15:58:44;17.52;;;10.85;;
30301;SDS011;17111;52.130;5.028;2023-02-15T16:01:15;18.20;;;11.32;;
30301;SDS011;17111;52.130;5.028;2023-02-15T16:03:49;16.10;;;10.70;;
30301;SDS011;17111;52.130;5.028;2023-02-15T16:06:34;15.15;;;10.75;;
30301;SDS011;17111;52.130;5.028;2023-02-15T16:09:10;19.90;;;11.13;;
30301;SDS011;17111;52.130;5.028;2023-02-15T16:11:43;19.63;;;11.32;;
30301;SDS011;17111;52.130;5.028;2023-02-15T16:14:15;16.88;;;11.63;;
30301;SDS011;17111;52.130;5.028;2023-02-15T16:16:49;18.33;;;11.10;;
30301;SDS011;17111;52.130;5.028;2023-02-15T16:19:21;16.10;;;10.63;;
30301;SDS011;17111;52.130;5.028;2023-02-15T16:21:50;18.08;;;11.18;;
30301;SDS011;17111;52.130;5.028;2023-02-15T16:24:25;17.58;;;10.98;;
30301;SDS011;17111;52.130;5.028;2023-02-15T16:27:36;16.58;;;11.15;;
30301;SDS011;17111;52.130;5.028;2023-02-15T16:33:09;16.67;;;10.77;;
30301;SDS011;17111;52.130;5.028;2023-02-15T16:35:38;17.50;;;11.30;;
30301;SDS011;17111;52.130;5.028;2023-02-15T16:38:10;18.48;;;11.45;;
30301;SDS011;17111;52.130;5.028;2023-02-15T16:43:20;20.95;;;12.60;;
30301;SDS011;17111;52.130;5.028;2023-02-15T16:45:51;17.52;;;12.00;;
30301;SDS011;17111;52.130;5.028;2023-02-15T16:48:25;19.48;;;12.32;;
30301;SDS011;17111;52.130;5.028;2023-02-15T16:50:54;17.98;;;11.55;;
30301;SDS011;17111;52.130;5.028;2023-02-15T16:53:24;19.98;;;12.10;;
30301;SDS011;17111;52.130;5.028;2023-02-15T16:55:54;19.25;;;11.52;;
30301;SDS011;17111;52.130;5.028;2023-02-15T16:58:25;18.35;;;11.73;;
30301;SDS011;17111;52.130;5.028;2023-02-15T17:00:56;15.57;;;10.95;;
30301;SDS011;17111;52.130;5.028;2023-02-15T17:03:25;18.00;;;11.63;;
30301;SDS011;17111;52.130;5.028;2023-02-15T17:05:56;16.77;;;11.18;;
30301;SDS011;17111;52.130;5.028;2023-02-15T17:08:26;17.83;;;11.48;;
30301;SDS011;17111;52.130;5.028;2023-02-15T17:13:26;17.52;;;10.20;;
30301;SDS011;17111;52.130;5.028;2023-02-15T17:18:27;16.83;;;11.30;;
30301;SDS011;17111;52.130;5.028;2023-02-15T17:21:16;16.42;;;10.77;;
30301;SDS011;17111;52.130;5.028;2023-02-15T17:23:45;16.75;;;10.63;;
30301;SDS011;17111;52.130;5.028;2023-02-15T17:26:21;17.67;;;10.45;;
30301;SDS011;17111;52.130;5.028;2023-02-15T17:28:57;17.45;;;11.05;;
30301;SDS011;17111;52.130;5.028;2023-02-15T17:33:59;20.17;;;11.57;;
30301;SDS011;17111;52.130;5.028;2023-02-15T17:36:27;16.58;;;10.77;;
30301;SDS011;17111;52.130;5.028;2023-02-15T17:39:00;15.50;;;10.30;;
30301;SDS011;17111;52.130;5.028;2023-02-15T17:41:33;18.60;;;10.98;;
30301;SDS011;17111;52.130;5.028;2023-02-15T17:44:01;18.60;;;11.23;;
30301;SDS011;17111;52.130;5.028;2023-02-15T17:46:31;17.17;;;10.80;;
30301;SDS011;17111;52.130;5.028;2023-02-15T17:49:01;16.60;;;11.27;;
30301;SDS011;17111;52.130;5.028;2023-02-15T17:51:28;18.05;;;10.65;;
30301;SDS011;17111;52.130;5.028;2023-02-15T17:53:54;19.00;;;11.13;;
30301;SDS011;17111;52.130;5.028;2023-02-15T17:56:40;15.57;;;10.65;;
30301;SDS011;17111;52.130;5.028;2023-02-15T17:59:06;18.52;;;10.63;;
30301;SDS011;17111;52.130;5.028;2023-02-15T18:01:33;18.02;;;11.60;;